PWSweather.com
Personal Weather Stations
Station Observations
WATERF01
WaterfordIE

WaterfordIE

Lat: 52.2412507, Lon: -7.1414691

Elevation: 65

Station Type: Davis Vantage Vue

www.waterfordweather.com

High Low Average
Temperature 45.6°F7.6°C 31.7°F-0.2°C 37.0°F2.8°C
Dew Point 44.8°F7.1°C 29.1°F-1.6°C 36.1°F2.3°C
Winds 16.1 mph 25.9 kmh Calm Calm 5.0 mph SSW8.0 kmh SSW
Wind Gusts 27.6 mph44.4 kmh -- 9.0 mph14.5 kmh
Humidity 98% 90% 97%
Pressure 29.33 in993.2 mb 28.87 in977.7 mb -
Precipitation 1.36 in34.5 mm - -
Hour Temp Dew Point Humidity Winds Wind Gusts Pressure Precip Precip Rate Daily Precip Total
12:00 AM 44.7°F7.1°C 43.4°F6.3°C 95% 10.4 mph SE16.7 kmh SE 13.8 mph22.2 kmh 29.33 in993.2 mb - 0.01 in0.3 mm 0.01 in0.3 mm
12:10 AM 44.8°F7.1°C 43.5°F6.4°C 95% 9.2 mph SE14.8 kmh SE 9.2 mph14.8 kmh 29.32 in992.9 mb - 0.01 in0.3 mm 0.01 in0.3 mm
12:20 AM 44.9°F7.2°C 43.6°F6.4°C 95% 8.1 mph SE13.0 kmh SE 12.7 mph20.4 kmh 29.31 in992.6 mb - 0.01 in0.3 mm 0.02 in0.5 mm
12:30 AM 45.1°F7.3°C 43.8°F6.6°C 95% 10.4 mph SE16.7 kmh SE 18.4 mph29.6 kmh 29.30 in992.2 mb - 0.03 in0.8 mm 0.05 in1.3 mm
12:40 AM 45.3°F7.4°C 44.0°F6.7°C 95% 9.2 mph SE14.8 kmh SE 16.1 mph25.9 kmh 29.28 in991.5 mb - 0.04 in1.0 mm 0.08 in2.0 mm
12:50 AM 45.4°F7.4°C 44.1°F6.7°C 95% 10.4 mph SE16.7 kmh SE 15.0 mph24.1 kmh 29.27 in991.2 mb - 0.05 in1.3 mm 0.12 in3.0 mm
01:00 AM 45.4°F7.4°C 44.1°F6.7°C 95% 9.2 mph SE14.8 kmh SE 15.0 mph24.1 kmh 29.25 in990.5 mb - 0.05 in1.3 mm 0.17 in4.3 mm
01:10 AM 45.5°F7.5°C 44.2°F6.8°C 95% 9.2 mph SE14.8 kmh SE 12.7 mph20.4 kmh 29.24 in990.2 mb - 0.06 in1.5 mm 0.22 in5.6 mm
01:20 AM 45.5°F7.5°C 44.2°F6.8°C 95% 9.2 mph SE14.8 kmh SE 13.8 mph22.2 kmh 29.21 in989.2 mb - 0.05 in1.3 mm 0.27 in6.9 mm
01:30 AM 45.3°F7.4°C 44.2°F6.8°C 96% 10.4 mph SE16.7 kmh SE 16.1 mph25.9 kmh 29.19 in988.5 mb - 0.03 in0.8 mm 0.29 in7.4 mm
01:40 AM 45.2°F7.3°C 44.2°F6.8°C 96% 10.4 mph ESE16.7 kmh ESE 16.1 mph25.9 kmh 29.17 in987.8 mb - 0.01 in0.3 mm 0.30 in7.6 mm
01:50 AM 45.2°F7.3°C 44.1°F6.7°C 96% 10.4 mph SE16.7 kmh SE 19.6 mph31.5 kmh 29.15 in987.1 mb - 0.02 in0.5 mm 0.32 in8.1 mm
02:00 AM 45.3°F7.4°C 44.2°F6.8°C 96% 11.5 mph ESE18.5 kmh ESE 16.1 mph25.9 kmh 29.14 in986.8 mb - 0.02 in0.5 mm 0.34 in8.6 mm
02:10 AM 45.4°F7.4°C 44.3°F6.8°C 96% 11.5 mph SE18.5 kmh SE 16.1 mph25.9 kmh 29.11 in985.8 mb - 0.03 in0.8 mm 0.37 in9.4 mm
02:20 AM 45.6°F7.6°C 44.8°F7.1°C 97% 13.8 mph SE22.2 kmh SE 19.6 mph31.5 kmh 29.09 in985.1 mb - 0.03 in0.8 mm 0.39 in9.9 mm
02:30 AM 45.6°F7.6°C 44.8°F7.1°C 97% 16.1 mph ESE25.9 kmh ESE 25.3 mph40.7 kmh 29.07 in984.4 mb - 0.02 in0.5 mm 0.40 in10.2 mm
02:40 AM 45.5°F7.5°C 44.7°F7.1°C 97% 9.2 mph ESE14.8 kmh ESE 19.6 mph31.5 kmh 29.06 in984.1 mb - 0.01 in0.3 mm 0.41 in10.4 mm
02:50 AM 45.4°F7.4°C 44.6°F7.0°C 97% 10.4 mph E16.7 kmh E 19.6 mph31.5 kmh 29.04 in983.4 mb - 0.01 in0.3 mm 0.42 in10.7 mm
03:00 AM 45.3°F7.4°C 44.5°F6.9°C 97% 9.2 mph E14.8 kmh E 16.1 mph25.9 kmh 29.03 in983.1 mb - 0.02 in0.5 mm 0.44 in11.2 mm
03:10 AM 45.2°F7.3°C 44.4°F6.9°C 97% 11.5 mph ESE18.5 kmh ESE 18.4 mph29.6 kmh 29.01 in982.4 mb - 0.01 in0.3 mm 0.45 in11.4 mm
03:20 AM 45.0°F7.2°C 44.2°F6.8°C 97% 9.2 mph E14.8 kmh E 13.8 mph22.2 kmh 28.99 in981.7 mb - 0.01 in0.3 mm 0.46 in11.7 mm
03:30 AM 44.9°F7.2°C 44.1°F6.7°C 97% 11.5 mph E18.5 kmh E 19.6 mph31.5 kmh 28.98 in981.4 mb - 0.02 in0.5 mm 0.48 in12.2 mm
03:40 AM 44.9°F7.2°C 44.1°F6.7°C 97% 10.4 mph E16.7 kmh E 19.6 mph31.5 kmh 28.97 in981.0 mb - 0.02 in0.5 mm 0.50 in12.7 mm
03:50 AM 44.7°F7.1°C 43.9°F6.6°C 97% 10.4 mph E16.7 kmh E 12.7 mph20.4 kmh 28.96 in980.7 mb - 0.02 in0.5 mm 0.52 in13.2 mm
04:00 AM 44.4°F6.9°C 43.6°F6.4°C 97% 11.5 mph E18.5 kmh E 15.0 mph24.1 kmh 28.95 in980.4 mb - 0.03 in0.8 mm 0.54 in13.7 mm
04:10 AM 44.2°F6.8°C 43.4°F6.3°C 97% 12.7 mph E20.4 kmh E 16.1 mph25.9 kmh 28.94 in980.0 mb - 0.02 in0.5 mm 0.56 in14.2 mm
04:20 AM 43.9°F6.6°C 43.1°F6.2°C 97% 10.4 mph E16.7 kmh E 16.1 mph25.9 kmh 28.93 in979.7 mb - 0.02 in0.5 mm 0.58 in14.7 mm
04:30 AM 43.0°F6.1°C 42.2°F5.7°C 97% 16.1 mph E25.9 kmh E 27.6 mph44.4 kmh 28.93 in979.7 mb - 0.01 in0.3 mm 0.59 in15.0 mm
04:40 AM 42.4°F5.8°C 41.7°F5.4°C 97% 10.4 mph E16.7 kmh E 15.0 mph24.1 kmh 28.93 in979.7 mb - 0.02 in0.5 mm 0.61 in15.5 mm
04:50 AM 42.0°F5.6°C 41.3°F5.2°C 97% 5.8 mph NE9.3 kmh NE 13.8 mph22.2 kmh 28.93 in979.7 mb - 0.01 in0.3 mm 0.62 in15.7 mm
05:00 AM 41.6°F5.3°C 40.8°F4.9°C 97% 8.1 mph NW13.0 kmh NW 11.5 mph18.5 kmh 28.96 in980.7 mb - 0.01 in0.3 mm 0.63 in16.0 mm
05:10 AM 41.3°F5.2°C 40.5°F4.7°C 97% 5.8 mph ENE9.3 kmh ENE 8.1 mph13.0 kmh 28.95 in980.4 mb - 0.01 in0.3 mm 0.64 in16.3 mm
05:20 AM 40.4°F4.7°C 39.7°F4.3°C 97% 3.5 mph WNW5.6 kmh WNW 5.8 mph9.3 kmh 28.98 in981.4 mb - 0.03 in0.8 mm 0.67 in17.0 mm
05:30 AM 40.3°F4.6°C 39.6°F4.2°C 97% 3.5 mph NW5.6 kmh NW 6.9 mph11.1 kmh 28.99 in981.7 mb - 0.02 in0.5 mm 0.68 in17.3 mm
05:40 AM 40.1°F4.5°C 39.3°F4.1°C 97% 2.3 mph NW3.7 kmh NW 2.3 mph3.7 kmh 28.98 in981.4 mb - 0.01 in0.3 mm 0.69 in17.5 mm
05:50 AM 39.8°F4.3°C 39.0°F3.9°C 97% 1.2 mph NNW1.9 kmh NNW 4.6 mph7.4 kmh 28.98 in981.4 mb - 0.01 in0.3 mm 0.70 in17.8 mm
06:00 AM 39.6°F4.2°C 38.8°F3.8°C 97% 1.2 mph N1.9 kmh N 2.3 mph3.7 kmh 28.97 in981.0 mb - 0.02 in0.5 mm 0.72 in18.3 mm
06:10 AM 39.4°F4.1°C 38.6°F3.7°C 97% 2.3 mph NW3.7 kmh NW 5.8 mph9.3 kmh 28.97 in981.0 mb - 0.01 in0.3 mm 0.73 in18.5 mm
06:20 AM 39.3°F4.1°C 38.5°F3.6°C 97% 3.5 mph ENE5.6 kmh ENE 8.1 mph13.0 kmh 28.97 in981.0 mb - 0.03 in0.8 mm 0.76 in19.3 mm
06:30 AM 38.6°F3.7°C 37.8°F3.2°C 97% 3.5 mph E5.6 kmh E 5.8 mph9.3 kmh 28.98 in981.4 mb - 0.02 in0.5 mm 0.78 in19.8 mm
06:40 AM 38.3°F3.5°C 37.6°F3.1°C 97% 1.2 mph E1.9 kmh E 5.8 mph9.3 kmh 28.97 in981.0 mb - 0.01 in0.3 mm 0.79 in20.1 mm
06:50 AM 38.0°F3.3°C 37.2°F2.9°C 97% 1.2 mph E1.9 kmh E 5.8 mph9.3 kmh 28.97 in981.0 mb - 0.01 in0.3 mm 0.80 in20.3 mm
07:00 AM 37.5°F3.1°C 36.7°F2.6°C 97% 1.2 mph E1.9 kmh E 5.8 mph9.3 kmh 28.97 in981.0 mb - 0.02 in0.5 mm 0.82 in20.8 mm
07:10 AM 37.1°F2.8°C 36.3°F2.4°C 97% 1.2 mph E1.9 kmh E 2.3 mph3.7 kmh 28.97 in981.0 mb - 0.02 in0.5 mm 0.83 in21.1 mm
07:20 AM 36.7°F2.6°C 36.0°F2.2°C 97% 3.5 mph E5.6 kmh E 5.8 mph9.3 kmh 28.96 in980.7 mb - 0.01 in0.3 mm 0.84 in21.3 mm
07:30 AM 36.2°F2.3°C 35.7°F2.1°C 98% 6.9 mph E11.1 kmh E 11.5 mph18.5 kmh 28.95 in980.4 mb - 0.02 in0.5 mm 0.86 in21.8 mm
07:40 AM 35.9°F2.2°C 35.4°F1.9°C 98% 1.2 mph E1.9 kmh E 2.3 mph3.7 kmh 28.96 in980.7 mb - 0.02 in0.5 mm 0.87 in22.1 mm
07:50 AM 35.8°F2.1°C 35.3°F1.8°C 98% 1.2 mph E1.9 kmh E 2.3 mph3.7 kmh 28.95 in980.4 mb - 0.01 in0.3 mm 0.88 in22.4 mm
08:00 AM 35.7°F2.1°C 35.2°F1.8°C 98% 4.6 mph E7.4 kmh E 6.9 mph11.1 kmh 28.95 in980.4 mb - 0.02 in0.5 mm 0.90 in22.9 mm
08:10 AM 35.5°F1.9°C 35.0°F1.7°C 98% 1.2 mph E1.9 kmh E 2.3 mph3.7 kmh 28.95 in980.4 mb - 0.02 in0.5 mm 0.92 in23.4 mm
08:20 AM 35.6°F2.0°C 35.1°F1.7°C 98% 2.3 mph E3.7 kmh E 5.8 mph9.3 kmh 28.94 in980.0 mb - 0.01 in0.3 mm 0.93 in23.6 mm
08:30 AM 35.1°F1.7°C 34.6°F1.4°C 98% 2.3 mph E3.7 kmh E 4.6 mph7.4 kmh 28.94 in980.0 mb - 0.02 in0.5 mm 0.95 in24.1 mm
08:40 AM 35.0°F1.7°C 34.5°F1.4°C 98% 2.3 mph E3.7 kmh E 5.8 mph9.3 kmh 28.94 in980.0 mb - 0.01 in0.3 mm 0.95 in24.1 mm
08:50 AM 34.7°F1.5°C 34.2°F1.2°C 98% 1.2 mph ESE1.9 kmh ESE 1.2 mph1.9 kmh 28.94 in980.0 mb - 0.02 in0.5 mm 0.97 in24.6 mm
09:00 AM 34.5°F1.4°C 34.0°F1.1°C 98% 2.3 mph E3.7 kmh E 4.6 mph7.4 kmh 28.93 in979.7 mb - 0.02 in0.5 mm 0.99 in25.1 mm
09:10 AM 34.0°F1.1°C 33.5°F0.8°C 98% 2.3 mph SSW3.7 kmh SSW 2.3 mph3.7 kmh 28.93 in979.7 mb - 0.02 in0.5 mm 1.01 in25.7 mm
09:20 AM 34.2°F1.2°C 33.7°F0.9°C 98% 2.3 mph E3.7 kmh E 5.8 mph9.3 kmh 28.93 in979.7 mb - 0.01 in0.3 mm 1.02 in25.9 mm
09:30 AM 34.1°F1.2°C 33.6°F0.9°C 98% 1.2 mph NW1.9 kmh NW 5.8 mph9.3 kmh 28.93 in979.7 mb - 0.02 in0.5 mm 1.04 in26.4 mm
09:40 AM 34.5°F1.4°C 34.0°F1.1°C 98% Calm Calm 1.2 mph1.9 kmh 28.93 in979.7 mb - 0.01 in0.3 mm 1.04 in26.4 mm
09:50 AM 34.5°F1.4°C 34.0°F1.1°C 98% 2.3 mph E3.7 kmh E 5.8 mph9.3 kmh 28.93 in979.7 mb - 0.01 in0.3 mm 1.05 in26.7 mm
10:00 AM 34.3°F1.3°C 33.8°F1.0°C 98% Calm Calm 2.3 mph3.7 kmh 28.93 in979.7 mb - 0.01 in0.3 mm 1.06 in26.9 mm
10:10 AM 34.0°F1.1°C 33.5°F0.8°C 98% Calm Calm 2.3 mph3.7 kmh 28.93 in979.7 mb - 0.01 in0.3 mm 1.07 in27.2 mm
10:20 AM 34.0°F1.1°C 33.5°F0.8°C 98% 1.2 mph E1.9 kmh E 2.3 mph3.7 kmh 28.92 in979.3 mb - 0.00 in0.0 mm 1.07 in27.2 mm
10:30 AM 33.7°F0.9°C 33.2°F0.7°C 98% Calm Calm 2.3 mph3.7 kmh 28.92 in979.3 mb - 0.00 in0.0 mm 1.07 in27.2 mm
10:40 AM 33.5°F0.8°C 33.0°F0.6°C 98% Calm Calm -- 28.92 in979.3 mb - 0.01 in0.3 mm 1.08 in27.4 mm
10:50 AM 33.5°F0.8°C 33.0°F0.6°C 98% Calm Calm 2.3 mph3.7 kmh 28.93 in979.7 mb - 0.01 in0.3 mm 1.08 in27.4 mm
11:00 AM 33.4°F0.8°C 32.9°F0.5°C 98% 1.2 mph NW1.9 kmh NW 2.3 mph3.7 kmh 28.93 in979.7 mb - 0.00 in0.0 mm 1.08 in27.4 mm
11:10 AM 33.2°F0.7°C 32.7°F0.4°C 98% 2.3 mph NNW3.7 kmh NNW 4.6 mph7.4 kmh 28.92 in979.3 mb - 0.00 in0.0 mm 1.08 in27.4 mm
11:20 AM 33.3°F0.7°C 32.8°F0.4°C 98% 1.2 mph NW1.9 kmh NW 2.3 mph3.7 kmh 28.92 in979.3 mb - 0.00 in0.0 mm 1.08 in27.4 mm
11:30 AM 33.3°F0.7°C 32.8°F0.4°C 98% 1.2 mph NW1.9 kmh NW 2.3 mph3.7 kmh 28.92 in979.3 mb - 0.00 in0.0 mm 1.08 in27.4 mm
11:40 AM 33.4°F0.8°C 32.9°F0.5°C 98% Calm Calm 2.3 mph3.7 kmh 28.91 in979.0 mb - 0.00 in0.0 mm 1.08 in27.4 mm
11:50 AM 33.6°F0.9°C 33.1°F0.6°C 98% Calm Calm 1.2 mph1.9 kmh 28.91 in979.0 mb - 0.01 in0.3 mm 1.09 in27.7 mm
12:00 PM 33.9°F1.1°C 33.4°F0.8°C 98% 2.3 mph E3.7 kmh E 5.8 mph9.3 kmh 28.90 in978.7 mb - 0.01 in0.3 mm 1.10 in27.9 mm
12:10 PM 34.1°F1.2°C 33.6°F0.9°C 98% Calm Calm 2.3 mph3.7 kmh 28.89 in978.3 mb - 0.01 in0.3 mm 1.11 in28.2 mm
12:20 PM 34.4°F1.3°C 33.9°F1.1°C 98% 2.3 mph E3.7 kmh E 6.9 mph11.1 kmh 28.89 in978.3 mb - 0.02 in0.5 mm 1.13 in28.7 mm
12:30 PM 34.6°F1.4°C 34.1°F1.2°C 98% Calm Calm 2.3 mph3.7 kmh 28.89 in978.3 mb - 0.01 in0.3 mm 1.14 in29.0 mm
12:40 PM 34.5°F1.4°C 34.0°F1.1°C 98% 2.3 mph ENE3.7 kmh ENE 8.1 mph13.0 kmh 28.89 in978.3 mb - 0.01 in0.3 mm 1.15 in29.2 mm
12:50 PM 34.6°F1.4°C 34.1°F1.2°C 98% 2.3 mph E3.7 kmh E 5.8 mph9.3 kmh 28.88 in978.0 mb - 0.01 in0.3 mm 1.16 in29.5 mm
01:00 PM 34.7°F1.5°C 34.2°F1.2°C 98% 3.5 mph ESE5.6 kmh ESE 5.8 mph9.3 kmh 28.88 in978.0 mb - 0.01 in0.3 mm 1.17 in29.7 mm
01:10 PM 34.7°F1.5°C 34.2°F1.2°C 98% 1.2 mph ENE1.9 kmh ENE 4.6 mph7.4 kmh 28.88 in978.0 mb - 0.00 in0.0 mm 1.17 in29.7 mm
01:20 PM 34.7°F1.5°C 34.2°F1.2°C 98% 2.3 mph E3.7 kmh E 5.8 mph9.3 kmh 28.88 in978.0 mb - 0.02 in0.5 mm 1.19 in30.2 mm
01:30 PM 34.8°F1.6°C 34.3°F1.3°C 98% 1.2 mph ESE1.9 kmh ESE 9.2 mph14.8 kmh 28.87 in977.7 mb - 0.01 in0.3 mm 1.19 in30.2 mm
01:40 PM 34.9°F1.6°C 34.4°F1.3°C 98% 3.5 mph E5.6 kmh E 6.9 mph11.1 kmh 28.87 in977.7 mb - 0.01 in0.3 mm 1.20 in30.5 mm
01:50 PM 34.9°F1.6°C 34.4°F1.3°C 98% 2.3 mph E3.7 kmh E 6.9 mph11.1 kmh 28.88 in978.0 mb - 0.01 in0.3 mm 1.21 in30.7 mm
02:00 PM 34.9°F1.6°C 34.4°F1.3°C 98% 4.6 mph E7.4 kmh E 13.8 mph22.2 kmh 28.88 in978.0 mb - 0.01 in0.3 mm 1.22 in31.0 mm
02:10 PM 34.8°F1.6°C 34.3°F1.3°C 98% 4.6 mph E7.4 kmh E 9.2 mph14.8 kmh 28.88 in978.0 mb - 0.01 in0.3 mm 1.23 in31.2 mm
02:20 PM 34.8°F1.6°C 34.3°F1.3°C 98% 3.5 mph E5.6 kmh E 9.2 mph14.8 kmh 28.88 in978.0 mb - 0.01 in0.3 mm 1.24 in31.5 mm
02:30 PM 34.7°F1.5°C 34.2°F1.2°C 98% 4.6 mph NNE7.4 kmh NNE 11.5 mph18.5 kmh 28.88 in978.0 mb - 0.01 in0.3 mm 1.25 in31.8 mm
02:40 PM 34.6°F1.4°C 34.1°F1.2°C 98% 4.6 mph E7.4 kmh E 8.1 mph13.0 kmh 28.88 in978.0 mb - 0.01 in0.3 mm 1.26 in32.0 mm
02:50 PM 34.8°F1.6°C 34.3°F1.3°C 98% 4.6 mph ENE7.4 kmh ENE 6.9 mph11.1 kmh 28.89 in978.3 mb - 0.01 in0.3 mm 1.27 in32.3 mm
03:00 PM 35.0°F1.7°C 34.5°F1.4°C 98% 3.5 mph WSW5.6 kmh WSW 8.1 mph13.0 kmh 28.89 in978.3 mb - 0.02 in0.5 mm 1.29 in32.8 mm
03:10 PM 35.3°F1.8°C 34.8°F1.6°C 98% 3.5 mph S5.6 kmh S 5.8 mph9.3 kmh 28.89 in978.3 mb - 0.01 in0.3 mm 1.30 in33.0 mm
03:20 PM 35.5°F1.9°C 35.0°F1.7°C 98% 4.6 mph E7.4 kmh E 8.1 mph13.0 kmh 28.89 in978.3 mb - 0.01 in0.3 mm 1.31 in33.3 mm
03:30 PM 35.6°F2.0°C 35.1°F1.7°C 98% 1.2 mph SW1.9 kmh SW 5.8 mph9.3 kmh 28.89 in978.3 mb - 0.01 in0.3 mm 1.31 in33.3 mm
03:40 PM 35.6°F2.0°C 35.1°F1.7°C 98% 3.5 mph WSW5.6 kmh WSW 8.1 mph13.0 kmh 28.90 in978.7 mb - 0.01 in0.3 mm 1.32 in33.5 mm
03:50 PM 35.7°F2.1°C 35.2°F1.8°C 98% 3.5 mph WSW5.6 kmh WSW 5.8 mph9.3 kmh 28.90 in978.7 mb - 0.00 in0.0 mm 1.32 in33.5 mm
04:00 PM 35.7°F2.1°C 35.2°F1.8°C 98% 3.5 mph NNE5.6 kmh NNE 12.7 mph20.4 kmh 28.90 in978.7 mb - 0.01 in0.3 mm 1.33 in33.8 mm
04:10 PM 35.7°F2.1°C 35.2°F1.8°C 98% 4.6 mph NW7.4 kmh NW 6.9 mph11.1 kmh 28.91 in979.0 mb - 0.00 in0.0 mm 1.33 in33.8 mm
04:20 PM 35.7°F2.1°C 35.2°F1.8°C 98% 2.3 mph N3.7 kmh N 4.6 mph7.4 kmh 28.91 in979.0 mb - 0.01 in0.3 mm 1.34 in34.0 mm
04:30 PM 35.6°F2.0°C 35.0°F1.7°C 98% 3.5 mph NW5.6 kmh NW 9.2 mph14.8 kmh 28.91 in979.0 mb - 0.00 in0.0 mm 1.34 in34.0 mm
04:40 PM 35.4°F1.9°C 34.9°F1.6°C 98% 4.6 mph NNW7.4 kmh NNW 9.2 mph14.8 kmh 28.91 in979.0 mb - 0.00 in0.0 mm 1.34 in34.0 mm
04:50 PM 35.2°F1.8°C 34.7°F1.5°C 98% 5.8 mph NW9.3 kmh NW 8.1 mph13.0 kmh 28.91 in979.0 mb - 0.01 in0.3 mm 1.35 in34.3 mm
05:00 PM 35.1°F1.7°C 34.6°F1.4°C 98% 5.8 mph NNW9.3 kmh NNW 8.1 mph13.0 kmh 28.92 in979.3 mb - 0.00 in0.0 mm 1.35 in34.3 mm
05:10 PM 35.2°F1.8°C 34.7°F1.5°C 98% 4.6 mph NNW7.4 kmh NNW 6.9 mph11.1 kmh 28.92 in979.3 mb - 0.00 in0.0 mm 1.35 in34.3 mm
05:20 PM 35.3°F1.8°C 34.8°F1.6°C 98% 3.5 mph NW5.6 kmh NW 6.9 mph11.1 kmh 28.93 in979.7 mb - 0.00 in0.0 mm 1.35 in34.3 mm
05:30 PM 35.3°F1.8°C 34.8°F1.6°C 98% 5.8 mph NNW9.3 kmh NNW 11.5 mph18.5 kmh 28.93 in979.7 mb - 0.00 in0.0 mm 1.35 in34.3 mm
05:40 PM 35.3°F1.8°C 34.8°F1.6°C 98% 3.5 mph NW5.6 kmh NW 5.8 mph9.3 kmh 28.93 in979.7 mb - 0.00 in0.0 mm 1.35 in34.3 mm
05:50 PM 35.3°F1.8°C 34.8°F1.6°C 98% 4.6 mph NNW7.4 kmh NNW 6.9 mph11.1 kmh 28.94 in980.0 mb - 0.00 in0.0 mm 1.35 in34.3 mm
06:00 PM 35.2°F1.8°C 34.7°F1.5°C 98% 4.6 mph NNW7.4 kmh NNW 8.1 mph13.0 kmh 28.94 in980.0 mb - 0.00 in0.0 mm 1.35 in34.3 mm
06:10 PM 35.2°F1.8°C 34.7°F1.5°C 98% 3.5 mph NW5.6 kmh NW 5.8 mph9.3 kmh 28.95 in980.4 mb - 0.01 in0.3 mm 1.36 in34.5 mm
06:20 PM 35.1°F1.7°C 34.6°F1.4°C 98% 5.8 mph NNW9.3 kmh NNW 16.1 mph25.9 kmh 28.96 in980.7 mb - 0.00 in0.0 mm 1.36 in34.5 mm
06:30 PM 35.0°F1.7°C 34.5°F1.4°C 98% 5.8 mph NNW9.3 kmh NNW 9.2 mph14.8 kmh 28.96 in980.7 mb - 0.00 in0.0 mm 1.36 in34.5 mm
06:40 PM 34.9°F1.6°C 34.4°F1.3°C 98% 5.8 mph NW9.3 kmh NW 8.1 mph13.0 kmh 28.96 in980.7 mb - 0.00 in0.0 mm 1.36 in34.5 mm
06:50 PM 34.8°F1.6°C 34.3°F1.3°C 98% 5.8 mph NNW9.3 kmh NNW 9.2 mph14.8 kmh 28.97 in981.0 mb - 0.00 in0.0 mm 1.36 in34.5 mm
07:00 PM 34.9°F1.6°C 34.4°F1.3°C 98% 4.6 mph N7.4 kmh N 6.9 mph11.1 kmh 28.97 in981.0 mb - 0.00 in0.0 mm 1.36 in34.5 mm
07:10 PM 35.0°F1.7°C 34.5°F1.4°C 98% 4.6 mph NW7.4 kmh NW 9.2 mph14.8 kmh 28.98 in981.4 mb - 0.00 in0.0 mm 1.36 in34.5 mm
07:20 PM 35.1°F1.7°C 34.6°F1.4°C 98% 3.5 mph NW5.6 kmh NW 5.8 mph9.3 kmh 28.98 in981.4 mb - 0.00 in0.0 mm 1.36 in34.5 mm
07:30 PM 35.0°F1.7°C 34.5°F1.4°C 98% 5.8 mph NNW9.3 kmh NNW 6.9 mph11.1 kmh 28.99 in981.7 mb - 0.00 in0.0 mm 1.36 in34.5 mm
07:40 PM 34.8°F1.6°C 34.3°F1.3°C 98% 4.6 mph NW7.4 kmh NW 12.7 mph20.4 kmh 28.99 in981.7 mb - 0.00 in0.0 mm 1.36 in34.5 mm
07:50 PM 34.2°F1.2°C 33.7°F0.9°C 98% 4.6 mph NW7.4 kmh NW 8.1 mph13.0 kmh 28.99 in981.7 mb - 0.00 in0.0 mm 1.36 in34.5 mm
08:00 PM 33.7°F0.9°C 33.2°F0.7°C 98% 6.9 mph NW11.1 kmh NW 11.5 mph18.5 kmh 29.00 in982.1 mb - 0.00 in0.0 mm 1.36 in34.5 mm
08:10 PM 33.5°F0.8°C 33.0°F0.6°C 98% 6.9 mph NW11.1 kmh NW 12.7 mph20.4 kmh 29.00 in982.1 mb - 0.00 in0.0 mm 1.36 in34.5 mm
08:20 PM 33.3°F0.7°C 32.5°F0.3°C 97% 8.1 mph NW13.0 kmh NW 13.8 mph22.2 kmh 29.00 in982.1 mb - 0.00 in0.0 mm 1.36 in34.5 mm
08:30 PM 33.3°F0.7°C 32.6°F0.3°C 97% 8.1 mph NNW13.0 kmh NNW 13.8 mph22.2 kmh 29.01 in982.4 mb - 0.00 in0.0 mm 1.36 in34.5 mm
08:40 PM 33.2°F0.7°C 32.2°F0.1°C 96% 8.1 mph NNW13.0 kmh NNW 11.5 mph18.5 kmh 29.01 in982.4 mb - 0.00 in0.0 mm 1.36 in34.5 mm
08:50 PM 33.1°F0.6°C 32.1°F0.1°C 96% 8.1 mph NNW13.0 kmh NNW 11.5 mph18.5 kmh 29.01 in982.4 mb - 0.00 in0.0 mm 1.36 in34.5 mm
09:00 PM 33.0°F0.6°C 31.7°F-0.2°C 95% 8.1 mph NNW13.0 kmh NNW 18.4 mph29.6 kmh 29.02 in982.7 mb - 0.00 in0.0 mm 1.36 in34.5 mm
09:10 PM 32.9°F0.5°C 31.3°F-0.4°C 94% 9.2 mph NW14.8 kmh NW 16.1 mph25.9 kmh 29.02 in982.7 mb - 0.00 in0.0 mm 1.36 in34.5 mm
09:20 PM 32.8°F0.4°C 31.0°F-0.6°C 93% 9.2 mph NNW14.8 kmh NNW 16.1 mph25.9 kmh 29.02 in982.7 mb - 0.00 in0.0 mm 1.36 in34.5 mm
09:30 PM 32.7°F0.4°C 30.9°F-0.6°C 93% 8.1 mph NW13.0 kmh NW 13.8 mph22.2 kmh 29.03 in983.1 mb - 0.00 in0.0 mm 1.36 in34.5 mm
09:40 PM 32.6°F0.3°C 30.5°F-0.8°C 92% 6.9 mph NNW11.1 kmh NNW 9.2 mph14.8 kmh 29.03 in983.1 mb - 0.00 in0.0 mm 1.36 in34.5 mm
09:50 PM 32.6°F0.3°C 30.3°F-0.9°C 91% 9.2 mph NNW14.8 kmh NNW 12.7 mph20.4 kmh 29.03 in983.1 mb - 0.00 in0.0 mm 1.36 in34.5 mm
10:00 PM 32.6°F0.3°C 30.3°F-0.9°C 91% 6.9 mph NNW11.1 kmh NNW 11.5 mph18.5 kmh 29.04 in983.4 mb - 0.00 in0.0 mm 1.36 in34.5 mm
10:10 PM 32.4°F0.2°C 30.0°F-1.1°C 91% 4.6 mph NW7.4 kmh NW 8.1 mph13.0 kmh 29.05 in983.7 mb - 0.00 in0.0 mm 1.36 in34.5 mm
10:20 PM 32.3°F0.2°C 30.0°F-1.1°C 91% 6.9 mph NNW11.1 kmh NNW 9.2 mph14.8 kmh 29.05 in983.7 mb - 0.00 in0.0 mm 1.36 in34.5 mm
10:30 PM 32.3°F0.2°C 30.0°F-1.1°C 91% 5.8 mph NNW9.3 kmh NNW 10.4 mph16.7 kmh 29.06 in984.1 mb - 0.00 in0.0 mm 1.36 in34.5 mm
10:40 PM 32.1°F0.1°C 29.8°F-1.2°C 91% 6.9 mph NW11.1 kmh NW 11.5 mph18.5 kmh 29.06 in984.1 mb - 0.00 in0.0 mm 1.36 in34.5 mm
10:50 PM 31.9°F-0.1°C 29.6°F-1.3°C 91% 4.6 mph NNW7.4 kmh NNW 10.4 mph16.7 kmh 29.07 in984.4 mb - 0.00 in0.0 mm 1.36 in34.5 mm
11:00 PM 32.1°F0.1°C 29.7°F-1.3°C 91% 8.1 mph NNW13.0 kmh NNW 13.8 mph22.2 kmh 29.07 in984.4 mb - 0.00 in0.0 mm 1.36 in34.5 mm
11:10 PM 32.1°F0.1°C 29.5°F-1.4°C 90% 6.9 mph NNW11.1 kmh NNW 9.2 mph14.8 kmh 29.07 in984.4 mb - 0.00 in0.0 mm 1.36 in34.5 mm
11:20 PM 32.0°F0.0°C 29.4°F-1.4°C 90% 8.1 mph NW13.0 kmh NW 11.5 mph18.5 kmh 29.08 in984.8 mb - 0.00 in0.0 mm 1.36 in34.5 mm
11:30 PM 31.9°F-0.1°C 29.3°F-1.5°C 90% 6.9 mph NNW11.1 kmh NNW 11.5 mph18.5 kmh 29.08 in984.8 mb - 0.00 in0.0 mm 1.36 in34.5 mm
11:40 PM 31.7°F-0.2°C 29.1°F-1.6°C 90% 8.1 mph NW13.0 kmh NW 11.5 mph18.5 kmh 29.09 in985.1 mb - 0.00 in0.0 mm 1.36 in34.5 mm
11:50 PM 31.7°F-0.2°C 29.1°F-1.6°C 90% 9.2 mph NW14.8 kmh NW 13.8 mph22.2 kmh 29.09 in985.1 mb - 0.00 in0.0 mm 1.36 in34.5 mm